Hopkinton, MA

7:51 PM EDT on September 21, 2014 (GMT -0400)
Saddle Hill Estates | Change Station
CLOSE
Current Station
Personal Weather Station
Location: Hopkinton, MA
Elevation: 497 ft
Nearby Weather Stations

Elev 497 ft 42.24 °N, 71.55 °W | Updated 4 seconds ago

Overcast
Overcast
70.9 °F
Feels Like 70.9 °F
N
0.0
Wind Variable Wind from East
Gusts 1.6 mph

Today
High -- | Low -- °F
--% Chance of Precip.
Yesterday
High -- | Low -- °F
Precip. -- in
6:32 AM 6:45 PM
Waning Crescent, 5% visible
Pressure 29.66 in
Visibility 9.0 miles
Clouds Few 800 ft
Mostly Cloudy 7500 ft
Dew Point 71 °F
Humidity 99%
Rainfall 0.04 in
Snow Depth Not available.
UV 0 out of 12
Pollen 1.50 out of 12
Air Quality Not available.
Flu Activity Not available.
SPECI KORH 212320Z 16004KT 9SM R11/2600VP6000FT FEW008 BKN075 19/19 A2966 RMK AO2 T01940189 $

More Conditions Fewer Conditions

Pressure 29.66 in
Visibility 9.0 miles
Clouds Few 800 ft
Mostly Cloudy 7500 ft
Dew Point 71 °F
Humidity 99%
Rainfall 0.04 in
Snow Depth Not available.
UV 0 out of 12
Pollen 1.50 out of 12
Air Quality Not available.
Flu Activity Not available.
SPECI KORH 212320Z 16004KT 9SM R11/2600VP6000FT FEW008 BKN075 19/19 A2966 RMK AO2 T01940189 $

More Conditions Fewer Conditions

10-Day Weather Forecast

Almanac

Astronomy

Sep. 21, 2014 Rise Set
Actual Time 6:32 AM EDT 6:45 PM EDT
Civil Twilight 6:04 AM EDT 7:13 PM EDT
Nautical Twilight 5:31 AM EDT 7:45 PM EDT
Astronomical Twilight 4:57 AM EDT 8:19 PM EDT
Moon 4:01 AM EDT 5:21 PM EDT
Length of Visible Light 13h 08m
Length of Day
12h 12m
Tomorrow will be 2m 50s shorter.
Waning Crescent, 5% of the Moon is Illuminated
Today
Waning Crescent
Sep 24
New
Oct 1
First Quarter
Oct 8
Full
Oct 15
Last Quarter

Today's Extremes

State Highs State Lows

Community

WunderPhotos

Upload Photos

1,755,293 photos uploaded!

WunderBlogs® & News

Nearby

Air Quality

  Air Quality AQ Index Pollutant
Sunday Good
PM2.5
Sunday Good
OZONE
Monday Good
PM2.5
Monday Good
OZONE

Snow Depth

Station Depth Elevation
No new snow has been reported.

Earthquake Activity

City Distance Mag. Time & Date
No recent earthquake activity has been reported nearby.
Minimum magnitude displayed is 2.5.

Coastal Water Temperatures

Place Temperature
Newport, RI 66.9 °F
Quonset Point, RI 68.0 °F
Conimicut Light, RI 69.1 °F

Nearby Weather Stations